Albany, Georgia
Current Conditions -  °F | °C
As of 2:53 PM on Saturday 20 Dec 2014 (Local Time) from KABY Reporting Station
Overcast Overcast  
Wind Chill: 58°   Ceiling: 10000
Heat Index: 58°   Visibility: 10mi
Dew Point: 49°   Wind: 6mph
Humidity: 72%   Direction: 80°E
Pressure: 30.13"   Gusts: NA
Location:  31.58°N, 84.15°W
Report Text: KABY 201953Z 08005KT 10SM OVC100 14/09 A3013 RMK AO2 SLP201 T01440094
Loading
Personal Weather Stations






























Interactive Weather Map New forecast layout! Learn more

10-Day Weather Forecast

Advertisements
Track Severe Weather on mobile